sensor_id;sensor_type;location;lat;lon;timestamp;pressure;altitude;pressure_sealevel;temperature;humidity
54122;BME280;40029;58.708;50.190;2022-08-21T00:01:22;101669.00;;;14.76;50.25
54122;BME280;40029;58.708;50.190;2022-08-21T00:03:53;101662.94;;;14.72;49.91
54122;BME280;40029;58.708;50.190;2022-08-21T00:06:25;101676.06;;;14.72;49.73
54122;BME280;40029;58.708;50.190;2022-08-21T00:08:56;101669.16;;;14.70;49.85
54122;BME280;40029;58.708;50.190;2022-08-21T00:11:27;101665.56;;;14.72;49.59
54122;BME280;40029;58.708;50.190;2022-08-21T00:13:58;101663.78;;;14.74;49.67
54122;BME280;40029;58.708;50.190;2022-08-21T00:16:29;101669.84;;;14.77;49.42
54122;BME280;40029;58.708;50.190;2022-08-21T00:19:01;101670.75;;;14.75;49.51
54122;BME280;40029;58.708;50.190;2022-08-21T00:21:33;101669.00;;;14.76;49.46
54122;BME280;40029;58.708;50.190;2022-08-21T00:24:05;101669.03;;;14.74;49.60
54122;BME280;40029;58.708;50.190;2022-08-21T00:26:36;101659.53;;;14.69;49.44
54122;BME280;40029;58.708;50.190;2022-08-21T00:29:07;101670.00;;;14.70;49.71
54122;BME280;40029;58.708;50.190;2022-08-21T00:31:39;101678.81;;;14.68;49.71
54122;BME280;40029;58.708;50.190;2022-08-21T00:34:12;101667.56;;;14.63;50.19
54122;BME280;40029;58.708;50.190;2022-08-21T00:36:43;101660.78;;;14.54;50.15
54122;BME280;40029;58.708;50.190;2022-08-21T00:39:14;101666.84;;;14.56;50.58
54122;BME280;40029;58.708;50.190;2022-08-21T00:41:45;101666.00;;;14.56;50.68
54122;BME280;40029;58.708;50.190;2022-08-21T00:44:16;101672.09;;;14.56;50.63
54122;BME280;40029;58.708;50.190;2022-08-21T00:46:47;101661.81;;;14.48;50.67
54122;BME280;40029;58.708;50.190;2022-08-21T00:49:18;101669.59;;;14.52;50.75
54122;BME280;40029;58.708;50.190;2022-08-21T00:51:53;101671.41;;;14.49;50.68
54122;BME280;40029;58.708;50.190;2022-08-21T00:54:27;101680.16;;;14.47;50.79
54122;BME280;40029;58.708;50.190;2022-08-21T00:57:05;101677.59;;;14.44;50.61
54122;BME280;40029;58.708;50.190;2022-08-21T00:59:38;101683.00;;;14.38;50.62
54122;BME280;40029;58.708;50.190;2022-08-21T01:02:11;101676.94;;;14.34;50.82
54122;BME280;40029;58.708;50.190;2022-08-21T01:04:43;101678.81;;;14.29;50.79
54122;BME280;40029;58.708;50.190;2022-08-21T01:07:15;101678.03;;;14.25;50.86
54122;BME280;40029;58.708;50.190;2022-08-21T01:09:46;101678.88;;;14.26;50.48
54122;BME280;40029;58.708;50.190;2022-08-21T01:12:18;101666.75;;;14.22;50.29
54122;BME280;40029;58.708;50.190;2022-08-21T01:14:49;101680.66;;;14.25;50.36
54122;BME280;40029;58.708;50.190;2022-08-21T01:17:21;101683.31;;;14.24;50.58
54122;BME280;40029;58.708;50.190;2022-08-21T01:19:56;101677.22;;;14.23;50.59
54122;BME280;40029;58.708;50.190;2022-08-21T01:22:28;101675.56;;;14.18;50.57
54122;BME280;40029;58.708;50.190;2022-08-21T01:24:59;101683.47;;;14.16;50.80
54122;BME280;40029;58.708;50.190;2022-08-21T01:27:30;101680.91;;;14.15;50.96
54122;BME280;40029;58.708;50.190;2022-08-21T01:30:09;101683.44;;;14.18;51.22
54122;BME280;40029;58.708;50.190;2022-08-21T01:32:41;101679.16;;;14.14;51.46
54122;BME280;40029;58.708;50.190;2022-08-21T01:35:14;101684.13;;;14.26;51.07
54122;BME280;40029;58.708;50.190;2022-08-21T01:37:46;101684.13;;;14.26;51.11
54122;BME280;40029;58.708;50.190;2022-08-21T01:40:18;101675.50;;;14.21;51.42
54122;BME280;40029;58.708;50.190;2022-08-21T01:42:57;101637.63;;;13.95;51.23
54122;BME280;40029;58.708;50.190;2022-08-21T01:45:34;101693.75;;;14.25;51.65
54122;BME280;40029;58.708;50.190;2022-08-21T01:48:17;101629.03;;;13.89;51.44
54122;BME280;40029;58.708;50.190;2022-08-21T01:50:49;101661.75;;;14.11;51.43
54122;BME280;40029;58.708;50.190;2022-08-21T01:53:36;101689.75;;;14.49;51.49
54122;BME280;40029;58.708;50.190;2022-08-21T01:56:27;101654.69;;;14.15;51.37
54122;BME280;40029;58.708;50.190;2022-08-21T01:59:25;101614.00;;;13.97;51.42
54122;BME280;40029;58.708;50.190;2022-08-21T02:02:06;101679.50;;;14.37;51.63
54122;BME280;40029;58.708;50.190;2022-08-21T02:04:50;101625.28;;;14.02;51.19
54122;BME280;40029;58.708;50.190;2022-08-21T02:07:43;101691.97;;;14.66;50.75
54122;BME280;40029;58.708;50.190;2022-08-21T02:10:31;101692.28;;;14.54;50.39
54122;BME280;40029;58.708;50.190;2022-08-21T02:13:07;101668.06;;;14.40;50.63
54122;BME280;40029;58.708;50.190;2022-08-21T02:15:57;101682.63;;;14.55;50.83
54122;BME280;40029;58.708;50.190;2022-08-21T02:18:43;101693.66;;;14.69;50.33
54122;BME280;40029;58.708;50.190;2022-08-21T02:21:23;101635.56;;;14.47;49.97
54122;BME280;40029;58.708;50.190;2022-08-21T02:24:14;101651.09;;;14.56;49.63
54122;BME280;40029;58.708;50.190;2022-08-21T02:26:51;101660.38;;;14.71;49.43
54122;BME280;40029;58.708;50.190;2022-08-21T02:29:33;101640.31;;;14.68;49.82
54122;BME280;40029;58.708;50.190;2022-08-21T02:32:13;101678.09;;;14.97;49.36
54122;BME280;40029;58.708;50.190;2022-08-21T02:35:09;101633.72;;;14.86;49.05
54122;BME280;40029;58.708;50.190;2022-08-21T02:37:56;101711.88;;;15.42;48.76
54122;BME280;40029;58.708;50.190;2022-08-21T02:40:37;101665.19;;;15.22;48.48
54122;BME280;40029;58.708;50.190;2022-08-21T02:43:10;101668.31;;;15.35;48.31
54122;BME280;40029;58.708;50.190;2022-08-21T02:46:00;101640.16;;;15.40;48.10
54122;BME280;40029;58.708;50.190;2022-08-21T02:48:34;101675.38;;;15.65;47.98
54122;BME280;40029;58.708;50.190;2022-08-21T02:51:09;101667.41;;;15.68;47.66
54122;BME280;40029;58.708;50.190;2022-08-21T02:53:53;101676.44;;;15.89;47.90
54122;BME280;40029;58.708;50.190;2022-08-21T02:56:34;101671.81;;;15.97;47.59
54122;BME280;40029;58.708;50.190;2022-08-21T02:59:19;101669.75;;;16.07;47.65
54122;BME280;40029;58.708;50.190;2022-08-21T03:02:04;101690.91;;;16.32;47.26
54122;BME280;40029;58.708;50.190;2022-08-21T03:04:38;101640.97;;;16.03;47.84
54122;BME280;40029;58.708;50.190;2022-08-21T03:07:17;101669.09;;;16.29;48.09
54122;BME280;40029;58.708;50.190;2022-08-21T03:09:48;101705.72;;;16.63;48.11
54122;BME280;40029;58.708;50.190;2022-08-21T03:12:23;101665.00;;;16.46;48.88
54122;BME280;40029;58.708;50.190;2022-08-21T03:14:58;101700.13;;;16.73;48.28
54122;BME280;40029;58.708;50.190;2022-08-21T03:17:41;101714.06;;;17.04;48.03
54122;BME280;40029;58.708;50.190;2022-08-21T03:20:22;101668.25;;;16.83;48.16
54122;BME280;40029;58.708;50.190;2022-08-21T03:23:07;101667.09;;;16.91;47.79
54122;BME280;40029;58.708;50.190;2022-08-21T03:25:48;101698.53;;;17.21;47.44
54122;BME280;40029;58.708;50.190;2022-08-21T03:28:24;101709.28;;;17.40;47.41
54122;BME280;40029;58.708;50.190;2022-08-21T03:30:59;101698.47;;;17.47;47.45
54122;BME280;40029;58.708;50.190;2022-08-21T03:33:41;101667.03;;;17.43;47.29
54122;BME280;40029;58.708;50.190;2022-08-21T03:36:15;101694.31;;;17.65;46.80
54122;BME280;40029;58.708;50.190;2022-08-21T03:38:58;101669.66;;;17.66;46.46
54122;BME280;40029;58.708;50.190;2022-08-21T03:42:10;101721.28;;;18.20;46.29
54122;BME280;40029;58.708;50.190;2022-08-21T03:44:53;101701.28;;;18.15;46.00
54122;BME280;40029;58.708;50.190;2022-08-21T03:47:26;101694.03;;;18.20;45.85
54122;BME280;40029;58.708;50.190;2022-08-21T03:50:01;101721.09;;;18.70;45.06
54122;BME280;40029;58.708;50.190;2022-08-21T03:52:47;101693.63;;;18.53;44.79
54122;BME280;40029;58.708;50.190;2022-08-21T03:55:21;101675.38;;;18.46;44.55
54122;BME280;40029;58.708;50.190;2022-08-21T03:58:26;101723.88;;;18.88;44.32
54122;BME280;40029;58.708;50.190;2022-08-21T04:01:09;101682.50;;;18.66;44.12
54122;BME280;40029;58.708;50.190;2022-08-21T04:03:42;101669.38;;;18.65;43.98
54122;BME280;40029;58.708;50.190;2022-08-21T04:06:16;101662.13;;;18.70;43.89
54122;BME280;40029;58.708;50.190;2022-08-21T04:09:04;101721.94;;;19.13;44.19
54122;BME280;40029;58.708;50.190;2022-08-21T04:11:37;101687.84;;;19.07;43.70
54122;BME280;40029;58.708;50.190;2022-08-21T04:14:16;101700.28;;;19.26;43.53
54122;BME280;40029;58.708;50.190;2022-08-21T04:16:48;101695.56;;;19.32;43.24
54122;BME280;40029;58.708;50.190;2022-08-21T04:19:27;101695.75;;;19.48;43.01
54122;BME280;40029;58.708;50.190;2022-08-21T04:22:15;101724.41;;;19.78;42.66
54122;BME280;40029;58.708;50.190;2022-08-21T04:24:58;101679.25;;;19.63;42.48
54122;BME280;40029;58.708;50.190;2022-08-21T04:27:30;101694.59;;;19.74;42.14
54122;BME280;40029;58.708;50.190;2022-08-21T04:30:04;101729.53;;;20.01;41.87
54122;BME280;40029;58.708;50.190;2022-08-21T04:32:42;101730.03;;;20.09;40.86
54122;BME280;40029;58.708;50.190;2022-08-21T04:35:24;101744.13;;;20.29;40.35
54122;BME280;40029;58.708;50.190;2022-08-21T04:37:58;101715.53;;;20.18;39.66
54122;BME280;40029;58.708;50.190;2022-08-21T04:40:36;101705.03;;;20.34;38.94
54122;BME280;40029;58.708;50.190;2022-08-21T04:43:19;101681.53;;;20.28;38.46
54122;BME280;40029;58.708;50.190;2022-08-21T04:46:02;101716.41;;;20.55;38.53
54122;BME280;40029;58.708;50.190;2022-08-21T04:48:33;101707.63;;;20.54;38.30
54122;BME280;40029;58.708;50.190;2022-08-21T04:51:17;101683.56;;;20.59;38.26
54122;BME280;40029;58.708;50.190;2022-08-21T04:53:55;101722.94;;;20.84;37.70
54122;BME280;40029;58.708;50.190;2022-08-21T04:56:35;101724.13;;;20.95;37.69
54122;BME280;40029;58.708;50.190;2022-08-21T04:59:14;101690.19;;;20.85;37.60
54122;BME280;40029;58.708;50.190;2022-08-21T05:01:47;101715.69;;;21.05;37.64
54122;BME280;40029;58.708;50.190;2022-08-21T05:04:36;101659.34;;;20.84;37.58
54122;BME280;40029;58.708;50.190;2022-08-21T05:07:17;101706.78;;;21.23;37.44
54122;BME280;40029;58.708;50.190;2022-08-21T05:10:23;101728.66;;;21.45;37.00
54122;BME280;40029;58.708;50.190;2022-08-21T05:13:09;101708.44;;;21.43;36.93
54122;BME280;40029;58.708;50.190;2022-08-21T05:15:53;101688.34;;;21.39;36.78
54122;BME280;40029;58.708;50.190;2022-08-21T05:18:36;101701.84;;;21.67;36.52
54122;BME280;40029;58.708;50.190;2022-08-21T05:21:15;101714.47;;;21.80;35.67
54122;BME280;40029;58.708;50.190;2022-08-21T05:23:50;101725.88;;;21.98;35.84
54122;BME280;40029;58.708;50.190;2022-08-21T05:26:30;101667.97;;;21.73;35.92
54122;BME280;40029;58.708;50.190;2022-08-21T05:29:03;101651.25;;;21.70;35.58
54122;BME280;40029;58.708;50.190;2022-08-21T05:31:39;101659.41;;;21.83;35.12
54122;BME280;40029;58.708;50.190;2022-08-21T05:34:23;101668.84;;;22.05;35.25
54122;BME280;40029;58.708;50.190;2022-08-21T05:36:54;101655.91;;;21.99;35.14
54122;BME280;40029;58.708;50.190;2022-08-21T05:39:31;101643.22;;;22.04;34.91
54122;BME280;40029;58.708;50.190;2022-08-21T05:42:28;101651.13;;;22.21;34.47
54122;BME280;40029;58.708;50.190;2022-08-21T05:45:12;101693.50;;;22.54;33.73
54122;BME280;40029;58.708;50.190;2022-08-21T05:47:43;101707.34;;;22.75;33.72
54122;BME280;40029;58.708;50.190;2022-08-21T05:50:14;101699.69;;;22.85;33.55
54122;BME280;40029;58.708;50.190;2022-08-21T05:52:46;101704.31;;;22.97;33.21
54122;BME280;40029;58.708;50.190;2022-08-21T05:55:17;101699.50;;;23.04;33.26
54122;BME280;40029;58.708;50.190;2022-08-21T05:57:48;101695.53;;;23.11;32.41
54122;BME280;40029;58.708;50.190;2022-08-21T06:00:19;101711.41;;;23.27;32.38
54122;BME280;40029;58.708;50.190;2022-08-21T06:02:50;101698.41;;;23.36;32.24
54122;BME280;40029;58.708;50.190;2022-08-21T06:05:21;101695.09;;;23.47;32.36
54122;BME280;40029;58.708;50.190;2022-08-21T06:07:52;101690.72;;;23.60;31.98
54122;BME280;40029;58.708;50.190;2022-08-21T06:10:23;101698.16;;;23.69;31.67
54122;BME280;40029;58.708;50.190;2022-08-21T06:12:54;101700.81;;;23.84;31.71
54122;BME280;40029;58.708;50.190;2022-08-21T06:15:25;101692.25;;;23.93;31.72
54122;BME280;40029;58.708;50.190;2022-08-21T06:17:59;101689.00;;;24.02;31.63
54122;BME280;40029;58.708;50.190;2022-08-21T06:20:31;101679.19;;;24.03;31.31
54122;BME280;40029;58.708;50.190;2022-08-21T06:23:03;101681.72;;;24.18;30.76
54122;BME280;40029;58.708;50.190;2022-08-21T06:25:35;101683.50;;;24.32;30.35
54122;BME280;40029;58.708;50.190;2022-08-21T06:28:08;101678.25;;;24.45;29.89
54122;BME280;40029;58.708;50.190;2022-08-21T06:30:42;101683.91;;;24.53;28.91
54122;BME280;40029;58.708;50.190;2022-08-21T06:33:13;101667.47;;;24.47;27.53
54122;BME280;40029;58.708;50.190;2022-08-21T06:35:45;101685.59;;;24.68;27.48
54122;BME280;40029;58.708;50.190;2022-08-21T06:38:16;101688.59;;;24.77;27.04
54122;BME280;40029;58.708;50.190;2022-08-21T06:40:47;101688.03;;;24.84;26.56
54122;BME280;40029;58.708;50.190;2022-08-21T06:43:18;101680.50;;;24.91;26.72
54122;BME280;40029;58.708;50.190;2022-08-21T06:45:49;101678.91;;;25.01;26.17
54122;BME280;40029;58.708;50.190;2022-08-21T06:48:20;101672.41;;;25.05;25.96
54122;BME280;40029;58.708;50.190;2022-08-21T06:50:53;101669.44;;;25.10;25.34
54122;BME280;40029;58.708;50.190;2022-08-21T06:53:24;101649.16;;;24.94;25.37
54122;BME280;40029;58.708;50.190;2022-08-21T06:55:55;101676.94;;;25.17;25.29
54122;BME280;40029;58.708;50.190;2022-08-21T06:58:26;101680.97;;;25.23;25.14
54122;BME280;40029;58.708;50.190;2022-08-21T07:00:57;101680.25;;;25.34;24.88
54122;BME280;40029;58.708;50.190;2022-08-21T07:03:38;101681.09;;;25.34;24.21
54122;BME280;40029;58.708;50.190;2022-08-21T07:06:10;101686.97;;;25.39;23.95
54122;BME280;40029;58.708;50.190;2022-08-21T07:08:41;101682.38;;;25.41;23.94
54122;BME280;40029;58.708;50.190;2022-08-21T07:11:18;101677.13;;;25.53;23.33
54122;BME280;40029;58.708;50.190;2022-08-21T07:13:50;101677.13;;;25.53;23.03
54122;BME280;40029;58.708;50.190;2022-08-21T07:16:23;101666.34;;;25.54;22.49
54122;BME280;40029;58.708;50.190;2022-08-21T07:18:55;101671.47;;;25.70;22.44
54122;BME280;40029;58.708;50.190;2022-08-21T07:21:26;101664.81;;;25.76;22.63
54122;BME280;40029;58.708;50.190;2022-08-21T07:23:57;101657.38;;;25.81;22.35
54122;BME280;40029;58.708;50.190;2022-08-21T07:26:28;101663.97;;;25.88;22.41
54122;BME280;40029;58.708;50.190;2022-08-21T07:28:59;101662.22;;;26.00;22.55
54122;BME280;40029;58.708;50.190;2022-08-21T07:31:30;101667.00;;;26.07;22.04
54122;BME280;40029;58.708;50.190;2022-08-21T07:34:02;101664.56;;;26.04;21.78
54122;BME280;40029;58.708;50.190;2022-08-21T07:36:33;101667.84;;;26.08;21.89
54122;BME280;40029;58.708;50.190;2022-08-21T07:39:04;101667.06;;;26.18;21.32
54122;BME280;40029;58.708;50.190;2022-08-21T07:41:38;101661.50;;;26.22;21.40
54122;BME280;40029;58.708;50.190;2022-08-21T07:44:09;101659.34;;;26.27;21.61
54122;BME280;40029;58.708;50.190;2022-08-21T07:46:39;101666.38;;;26.28;21.50
54122;BME280;40029;58.708;50.190;2022-08-21T07:49:11;101655.47;;;26.31;21.60
54122;BME280;40029;58.708;50.190;2022-08-21T07:51:42;101664.00;;;26.36;20.98
54122;BME280;40029;58.708;50.190;2022-08-21T07:54:13;101656.75;;;26.38;21.26
54122;BME280;40029;58.708;50.190;2022-08-21T07:56:44;101655.81;;;26.50;21.09
54122;BME280;40029;58.708;50.190;2022-08-21T07:59:15;101648.84;;;26.60;21.06
54122;BME280;40029;58.708;50.190;2022-08-21T08:01:46;101650.69;;;26.71;20.87
54122;BME280;40029;58.708;50.190;2022-08-21T08:04:17;101626.97;;;26.66;20.76
54122;BME280;40029;58.708;50.190;2022-08-21T08:06:48;101646.09;;;26.84;20.99
54122;BME280;40029;58.708;50.190;2022-08-21T08:09:19;101647.69;;;26.87;21.12
54122;BME280;40029;58.708;50.190;2022-08-21T08:11:50;101638.69;;;26.88;20.08
54122;BME280;40029;58.708;50.190;2022-08-21T08:14:21;101652.59;;;27.04;19.69
54122;BME280;40029;58.708;50.190;2022-08-21T08:16:53;101643.88;;;27.13;19.57
54122;BME280;40029;58.708;50.190;2022-08-21T08:19:25;101645.59;;;27.14;19.26
54122;BME280;40029;58.708;50.190;2022-08-21T08:21:56;101646.31;;;27.16;19.20
54122;BME280;40029;58.708;50.190;2022-08-21T08:24:27;101643.88;;;27.25;19.22
54122;BME280;40029;58.708;50.190;2022-08-21T08:26:58;101644.38;;;27.30;19.13
54122;BME280;40029;58.708;50.190;2022-08-21T08:29:29;101633.78;;;27.17;18.84
54122;BME280;40029;58.708;50.190;2022-08-21T08:32:02;101634.16;;;27.35;19.07
54122;BME280;40029;58.708;50.190;2022-08-21T08:34:34;101615.31;;;27.25;18.83
54122;BME280;40029;58.708;50.190;2022-08-21T08:37:08;101644.88;;;27.46;18.28
54122;BME280;40029;58.708;50.190;2022-08-21T08:39:39;101645.25;;;27.53;18.37
54122;BME280;40029;58.708;50.190;2022-08-21T08:45:16;101636.19;;;27.65;17.92
54122;BME280;40029;58.708;50.190;2022-08-21T08:47:53;101631.72;;;27.65;17.72
54122;BME280;40029;58.708;50.190;2022-08-21T08:50:40;101632.94;;;27.61;17.71
54122;BME280;40029;58.708;50.190;2022-08-21T08:53:18;101628.53;;;27.72;17.83
54122;BME280;40029;58.708;50.190;2022-08-21T08:55:52;101580.63;;;27.46;17.85
54122;BME280;40029;58.708;50.190;2022-08-21T08:58:36;101631.25;;;27.83;17.49
54122;BME280;40029;58.708;50.190;2022-08-21T09:01:15;101631.63;;;27.78;16.83
54122;BME280;40029;58.708;50.190;2022-08-21T09:03:48;101631.72;;;27.77;17.15
54122;BME280;40029;58.708;50.190;2022-08-21T09:12:22;101612.72;;;27.91;16.20
54122;BME280;40029;58.708;50.190;2022-08-21T09:15:32;101613.97;;;27.76;16.64
54122;BME280;40029;58.708;50.190;2022-08-21T09:18:10;101588.25;;;27.84;16.64
54122;BME280;40029;58.708;50.190;2022-08-21T09:29:45;101602.53;;;28.17;17.12
54122;BME280;40029;58.708;50.190;2022-08-21T09:32:38;101603.47;;;28.16;16.64
54122;BME280;40029;58.708;50.190;2022-08-21T09:35:15;101606.13;;;28.27;16.07
54122;BME280;40029;58.708;50.190;2022-08-21T09:38:00;101597.84;;;28.30;16.08
54122;BME280;40029;58.708;50.190;2022-08-21T09:40:39;101596.59;;;28.34;16.21
54122;BME280;40029;58.708;50.190;2022-08-21T09:45:43;101593.06;;;28.34;16.18
54122;BME280;40029;58.708;50.190;2022-08-21T09:48:18;101594.53;;;28.38;15.88
54122;BME280;40029;58.708;50.190;2022-08-21T09:50:51;101591.13;;;28.36;16.39
54122;BME280;40029;58.708;50.190;2022-08-21T09:53:27;101587.44;;;28.37;16.37
54122;BME280;40029;58.708;50.190;2022-08-21T09:56:04;101580.34;;;28.47;16.81
54122;BME280;40029;58.708;50.190;2022-08-21T09:58:54;101552.69;;;28.47;16.31
54122;BME280;40029;58.708;50.190;2022-08-21T10:01:25;101579.75;;;28.64;15.55
54122;BME280;40029;58.708;50.190;2022-08-21T10:04:10;101579.16;;;28.61;16.03
54122;BME280;40029;58.708;50.190;2022-08-21T10:06:41;101576.63;;;28.59;15.38
54122;BME280;40029;58.708;50.190;2022-08-21T10:09:16;101570.72;;;28.65;15.04
54122;BME280;40029;58.708;50.190;2022-08-21T10:11:58;101575.66;;;28.91;14.27
54122;BME280;40029;58.708;50.190;2022-08-21T10:15:06;101568.69;;;28.79;14.20
54122;BME280;40029;58.708;50.190;2022-08-21T10:17:59;101569.00;;;28.85;14.57
54122;BME280;40029;58.708;50.190;2022-08-21T10:20:40;101563.75;;;28.84;14.36
54122;BME280;40029;58.708;50.190;2022-08-21T10:26:39;101556.19;;;29.10;14.43
54122;BME280;40029;58.708;50.190;2022-08-21T10:32:58;101548.69;;;29.13;13.82
54122;BME280;40029;58.708;50.190;2022-08-21T10:35:37;101547.97;;;29.11;13.89
54122;BME280;40029;58.708;50.190;2022-08-21T10:38:32;101542.75;;;29.10;12.87
54122;BME280;40029;58.708;50.190;2022-08-21T10:41:45;101559.19;;;29.26;12.71
54122;BME280;40029;58.708;50.190;2022-08-21T10:50:23;101542.53;;;29.32;11.37
54122;BME280;40029;58.708;50.190;2022-08-21T10:55:59;101540.59;;;29.44;11.18
54122;BME280;40029;58.708;50.190;2022-08-21T10:58:37;101526.19;;;29.45;11.62
54122;BME280;40029;58.708;50.190;2022-08-21T11:01:27;101525.09;;;29.67;10.76
54122;BME280;40029;58.708;50.190;2022-08-21T11:06:46;101514.66;;;29.74;10.98
54122;BME280;40029;58.708;50.190;2022-08-21T11:09:22;101524.00;;;29.79;11.01
54122;BME280;40029;58.708;50.190;2022-08-21T11:11:58;101513.97;;;29.91;10.65
54122;BME280;40029;58.708;50.190;2022-08-21T11:17:41;101485.81;;;29.66;11.26
54122;BME280;40029;58.708;50.190;2022-08-21T11:20:24;101506.44;;;29.85;11.66
54122;BME280;40029;58.708;50.190;2022-08-21T11:23:25;101474.63;;;29.90;11.44
54122;BME280;40029;58.708;50.190;2022-08-21T11:26:05;101506.31;;;30.06;12.27
54122;BME280;40029;58.708;50.190;2022-08-21T11:28:50;101498.97;;;30.18;11.86
54122;BME280;40029;58.708;50.190;2022-08-21T11:37:17;101504.59;;;30.34;11.79
54122;BME280;40029;58.708;50.190;2022-08-21T11:40:02;101497.47;;;30.52;11.37
54122;BME280;40029;58.708;50.190;2022-08-21T11:45:45;101489.22;;;30.73;11.50
54122;BME280;40029;58.708;50.190;2022-08-21T11:51:13;101489.75;;;31.59;11.70
54122;BME280;40029;58.708;50.190;2022-08-21T11:54:05;101484.53;;;32.12;10.21
54122;BME280;40029;58.708;50.190;2022-08-21T11:56:45;101489.81;;;32.73;9.71
54122;BME280;40029;58.708;50.190;2022-08-21T11:59:26;101485.44;;;33.57;8.74
54122;BME280;40029;58.708;50.190;2022-08-21T12:02:00;101491.34;;;34.34;8.04
54122;BME280;40029;58.708;50.190;2022-08-21T12:04:35;101490.88;;;34.86;7.95
54122;BME280;40029;58.708;50.190;2022-08-21T12:07:17;101488.22;;;35.17;7.67
54122;BME280;40029;58.708;50.190;2022-08-21T12:09:59;101475.13;;;35.60;7.37
54122;BME280;40029;58.708;50.190;2022-08-21T12:12:36;101466.00;;;35.99;7.29
54122;BME280;40029;58.708;50.190;2022-08-21T12:18:28;101475.53;;;36.77;7.05
54122;BME280;40029;58.708;50.190;2022-08-21T12:23:48;101468.41;;;37.27;4.92
54122;BME280;40029;58.708;50.190;2022-08-21T12:26:31;101463.91;;;37.34;4.57
54122;BME280;40029;58.708;50.190;2022-08-21T12:29:05;101468.81;;;37.24;5.31
54122;BME280;40029;58.708;50.190;2022-08-21T12:35:06;101470.50;;;38.11;4.41
54122;BME280;40029;58.708;50.190;2022-08-21T12:37:40;101457.47;;;38.06;4.28
54122;BME280;40029;58.708;50.190;2022-08-21T12:42:51;101459.84;;;38.16;4.62
54122;BME280;40029;58.708;50.190;2022-08-21T12:45:31;101462.84;;;38.56;4.02
54122;BME280;40029;58.708;50.190;2022-08-21T12:48:14;101457.47;;;38.69;4.33
54122;BME280;40029;58.708;50.190;2022-08-21T12:50:54;101459.13;;;38.70;3.32
54122;BME280;40029;58.708;50.190;2022-08-21T12:56:11;101451.66;;;38.44;3.66
54122;BME280;40029;58.708;50.190;2022-08-21T12:59:10;101441.50;;;38.31;4.01
54122;BME280;40029;58.708;50.190;2022-08-21T13:01:48;101435.91;;;37.83;3.81
54122;BME280;40029;58.708;50.190;2022-08-21T13:04:40;101432.06;;;37.71;4.90
54122;BME280;40029;58.708;50.190;2022-08-21T13:07:16;101435.25;;;37.53;5.45
54122;BME280;40029;58.708;50.190;2022-08-21T13:09:53;101431.50;;;37.54;4.92
54122;BME280;40029;58.708;50.190;2022-08-21T13:12:25;101432.53;;;37.53;4.96
54122;BME280;40029;58.708;50.190;2022-08-21T13:15:00;101433.13;;;37.34;5.17
54122;BME280;40029;58.708;50.190;2022-08-21T13:17:36;101429.75;;;37.46;4.68
54122;BME280;40029;58.708;50.190;2022-08-21T13:20:20;101426.28;;;37.38;5.14
54122;BME280;40029;58.708;50.190;2022-08-21T13:22:52;101424.03;;;37.41;5.07
54122;BME280;40029;58.708;50.190;2022-08-21T13:25:29;101421.13;;;37.64;4.40
54122;BME280;40029;58.708;50.190;2022-08-21T13:28:12;101426.75;;;37.63;5.33
54122;BME280;40029;58.708;50.190;2022-08-21T13:30:48;101411.34;;;37.27;5.29
54122;BME280;40029;58.708;50.190;2022-08-21T13:33:22;101419.84;;;37.02;5.30
54122;BME280;40029;58.708;50.190;2022-08-21T13:38:30;101416.13;;;36.74;5.47
54122;BME280;40029;58.708;50.190;2022-08-21T13:41:20;101416.38;;;36.58;5.21
54122;BME280;40029;58.708;50.190;2022-08-21T13:44:04;101414.19;;;36.53;4.93
54122;BME280;40029;58.708;50.190;2022-08-21T13:46:36;101408.56;;;36.40;5.13
54122;BME280;40029;58.708;50.190;2022-08-21T13:49:08;101411.47;;;36.38;5.62
54122;BME280;40029;58.708;50.190;2022-08-21T13:51:41;101404.38;;;36.37;5.67
54122;BME280;40029;58.708;50.190;2022-08-21T13:54:37;101412.22;;;36.17;5.50
54122;BME280;40029;58.708;50.190;2022-08-21T13:57:19;101410.16;;;36.34;5.88
54122;BME280;40029;58.708;50.190;2022-08-21T14:00:11;101411.69;;;36.51;5.18
54122;BME280;40029;58.708;50.190;2022-08-21T14:02:45;101411.31;;;36.54;5.79
54122;BME280;40029;58.708;50.190;2022-08-21T14:05:26;101411.94;;;36.42;5.74
54122;BME280;40029;58.708;50.190;2022-08-21T14:08:37;101414.94;;;36.02;5.67
54122;BME280;40029;58.708;50.190;2022-08-21T14:11:13;101406.44;;;35.83;5.76
54122;BME280;40029;58.708;50.190;2022-08-21T14:13:48;101409.78;;;35.70;5.90
54122;BME280;40029;58.708;50.190;2022-08-21T14:16:22;101409.19;;;35.60;6.35
54122;BME280;40029;58.708;50.190;2022-08-21T14:21:40;101407.22;;;35.53;6.41
54122;BME280;40029;58.708;50.190;2022-08-21T14:24:27;101405.16;;;35.55;6.99
54122;BME280;40029;58.708;50.190;2022-08-21T14:27:06;101411.81;;;35.68;6.77
54122;BME280;40029;58.708;50.190;2022-08-21T14:29:40;101410.22;;;35.59;6.85
54122;BME280;40029;58.708;50.190;2022-08-21T14:32:13;101407.63;;;35.65;7.12
54122;BME280;40029;58.708;50.190;2022-08-21T14:34:45;101409.47;;;35.42;7.02
54122;BME280;40029;58.708;50.190;2022-08-21T14:37:16;101402.22;;;35.34;6.97
54122;BME280;40029;58.708;50.190;2022-08-21T14:39:47;101408.63;;;35.18;6.97
54122;BME280;40029;58.708;50.190;2022-08-21T14:42:18;101400.44;;;34.95;7.18
54122;BME280;40029;58.708;50.190;2022-08-21T14:44:50;101401.50;;;34.47;7.80
54122;BME280;40029;58.708;50.190;2022-08-21T14:47:21;101390.97;;;33.80;8.35
54122;BME280;40029;58.708;50.190;2022-08-21T14:49:53;101398.69;;;33.26;8.63